createdAt,value
2023-01-23T00:00:09.553Z,12.4
2023-01-23T00:05:11.930Z,12.4
2023-01-23T00:10:14.091Z,12
2023-01-23T00:15:16.266Z,12.3
2023-01-23T00:20:19.061Z,11.9
2023-01-23T00:25:22.308Z,11.9
2023-01-23T00:30:24.591Z,11.6
2023-01-23T00:35:26.933Z,11.4
2023-01-23T00:40:29.319Z,12.1
2023-01-23T00:45:31.502Z,11.1
2023-01-23T00:50:33.679Z,10.6
2023-01-23T00:55:35.829Z,10.2
2023-01-23T01:00:38.029Z,10.2
2023-01-23T01:05:40.316Z,10
2023-01-23T01:10:42.500Z,9.9
2023-01-23T01:15:44.882Z,10.4
2023-01-23T01:20:47.230Z,9.9
2023-01-23T01:25:49.366Z,10.1
2023-01-23T01:30:51.869Z,10
2023-01-23T01:35:54.518Z,10.2
2023-01-23T01:40:56.602Z,10.4
2023-01-23T01:45:58.854Z,10
2023-01-23T01:51:01.019Z,9.9
2023-01-23T01:56:03.190Z,10.1
2023-01-23T02:01:05.531Z,10
2023-01-23T02:06:08.033Z,10.4
2023-01-23T02:11:10.200Z,10
2023-01-23T02:16:12.386Z,10.2
2023-01-23T02:21:14.725Z,9.4
2023-01-23T02:26:16.924Z,9.9
2023-01-23T02:31:19.295Z,9.8
2023-01-23T02:36:22.015Z,9.9
2023-01-23T02:41:24.192Z,15
2023-01-23T02:46:24.681Z,9.9
2023-01-23T02:51:26.852Z,10.2
2023-01-23T02:56:29.034Z,10.1
2023-01-23T03:01:31.247Z,10.4
2023-01-23T03:06:33.757Z,10.6
2023-01-23T03:11:35.888Z,10.2
2023-01-23T03:16:39.530Z,10
2023-01-23T03:21:42.126Z,10.8
2023-01-23T03:26:44.344Z,10.1
2023-01-23T03:31:46.612Z,10.2
2023-01-23T03:36:49.039Z,10
2023-01-23T03:41:51.326Z,10.4
2023-01-23T03:46:53.435Z,10.2
2023-01-23T03:51:55.510Z,9.8
2023-01-23T03:56:57.595Z,9.7
2023-01-23T04:01:59.844Z,9.9
2023-01-23T04:07:02.118Z,10.1
2023-01-23T04:12:04.273Z,10
2023-01-23T04:17:06.404Z,9.7
2023-01-23T04:22:08.767Z,10
2023-01-23T04:27:11.269Z,10.1
2023-01-23T04:32:13.621Z,10.1
2023-01-23T04:37:15.650Z,10.1
2023-01-23T04:42:17.827Z,10.3
2023-01-23T04:47:19.946Z,10.3
2023-01-23T04:52:22.148Z,10.3
2023-01-23T04:57:24.243Z,10
2023-01-23T05:02:26.633Z,10.1
2023-01-23T05:07:28.902Z,10.1
2023-01-23T05:12:30.928Z,10.5
2023-01-23T05:17:33.059Z,11.8
2023-01-23T05:22:35.187Z,10.8
2023-01-23T05:27:37.259Z,10.8
2023-01-23T05:32:39.459Z,11.2
2023-01-23T05:37:41.572Z,10.4
2023-01-23T05:42:44.067Z,10.5
2023-01-23T05:47:52.365Z,11
2023-01-23T05:52:54.944Z,11.2
2023-01-23T05:57:57.037Z,11
2023-01-23T06:02:59.416Z,11.4
2023-01-23T06:08:01.975Z,11.3
2023-01-23T06:13:03.937Z,12.1
2023-01-23T06:18:06.175Z,11.4
2023-01-23T06:23:08.355Z,12.3
2023-01-23T06:28:10.517Z,12.2
2023-01-23T06:33:12.869Z,12
2023-01-23T06:38:15.151Z,12
2023-01-23T06:43:17.242Z,17
2023-01-23T06:48:19.821Z,11.9
2023-01-23T06:53:22.275Z,11.2
2023-01-23T06:58:24.380Z,10.8
2023-01-23T07:03:26.660Z,10.7
2023-01-23T07:08:29.045Z,10.2
2023-01-23T07:13:31.334Z,12.9
2023-01-23T07:18:33.511Z,9.6
2023-01-23T07:23:35.708Z,9
2023-01-23T07:28:37.981Z,8.8
2023-01-23T07:33:40.286Z,8.7
2023-01-23T07:38:42.593Z,9.6
2023-01-23T07:43:45.004Z,8.1
2023-01-23T07:48:47.419Z,7.3
2023-01-23T07:53:49.546Z,6.8
2023-01-23T07:58:53.179Z,7.5
2023-01-23T08:03:59.115Z,7.1
2023-01-23T08:09:02.029Z,6.8
2023-01-23T08:14:04.393Z,5.5
2023-01-23T08:19:06.726Z,4.6
2023-01-23T08:24:09.123Z,4.7
2023-01-23T08:29:11.328Z,4.5
2023-01-23T08:34:13.397Z,4.4
2023-01-23T08:39:15.728Z,4.4
2023-01-23T08:44:18.032Z,4.7
2023-01-23T08:49:20.368Z,4.4
2023-01-23T08:54:22.849Z,4.5
2023-01-23T08:59:25.632Z,4.8
2023-01-23T09:04:28.022Z,7.9
2023-01-23T09:09:30.330Z,4.6
2023-01-23T09:14:32.694Z,4.7
2023-01-23T09:19:35.282Z,4.6
2023-01-23T09:24:41.408Z,4.9
2023-01-23T09:29:43.757Z,5.5
2023-01-23T09:34:45.949Z,4.7
2023-01-23T09:39:48.375Z,4.3
2023-01-23T09:44:50.510Z,4.1
2023-01-23T09:49:52.530Z,4.5
2023-01-23T09:54:54.462Z,4.5
2023-01-23T10:00:01.564Z,4.6
2023-01-23T10:05:04.099Z,4.1
2023-01-23T10:10:07.944Z,4
2023-01-23T10:15:10.162Z,3.9
2023-01-23T10:20:12.138Z,3.8
2023-01-23T10:25:14.247Z,3.8
2023-01-23T10:30:16.223Z,4.1
2023-01-23T10:35:19.263Z,3.9
2023-01-23T10:40:22.921Z,4.2
2023-01-23T10:45:25.066Z,3.6
2023-01-23T10:50:26.997Z,5.5
2023-01-23T10:55:27.443Z,3.5
2023-01-23T11:00:29.462Z,3.5
2023-01-23T11:05:37.568Z,3.8
2023-01-23T11:10:34.408Z,3.8
2023-01-23T11:15:36.524Z,3.7
2023-01-23T11:20:38.819Z,3.8
2023-01-23T11:25:40.938Z,4.2
2023-01-23T11:30:43.209Z,4
2023-01-23T11:35:45.937Z,4.3
2023-01-23T11:40:47.856Z,4
2023-01-23T11:45:49.984Z,3.8
2023-01-23T11:50:56.329Z,3.8
2023-01-23T11:55:58.686Z,4
2023-01-23T12:01:00.759Z,3.8
2023-01-23T12:06:20.621Z,4.2
2023-01-23T12:11:02.987Z,4.2
2023-01-23T12:16:05.042Z,4.1
2023-01-23T12:21:07.152Z,4.1
2023-01-23T12:26:09.426Z,3.7
2023-01-23T12:31:11.879Z,4
2023-01-23T12:36:14.444Z,4.1
2023-01-23T12:41:16.396Z,4.3
2023-01-23T12:46:18.411Z,4.4
2023-01-23T12:51:20.536Z,4.4
2023-01-23T12:56:22.631Z,4.4
2023-01-23T13:01:24.789Z,4.5
2023-01-23T13:06:27.112Z,4.7
2023-01-23T13:11:29.568Z,4.3
2023-01-23T13:16:32.161Z,4.4
2023-01-23T13:21:34.679Z,4.4
2023-01-23T13:26:36.809Z,4.3
2023-01-23T13:31:39.183Z,4.2
2023-01-23T13:36:42.248Z,4.3
2023-01-23T13:41:44.479Z,4.1
2023-01-23T13:46:46.561Z,4.1
2023-01-23T13:51:48.786Z,4
2023-01-23T13:56:50.750Z,4.5
2023-01-23T14:01:52.724Z,4.6
2023-01-23T14:06:54.648Z,4.3
2023-01-23T14:11:57.048Z,4.6
2023-01-23T14:17:00.591Z,5.8
2023-01-23T14:22:02.994Z,4.8
2023-01-23T14:27:08.893Z,4.7
2023-01-23T14:32:07.415Z,4.9
2023-01-23T14:37:09.654Z,4.9
2023-01-23T14:42:23.582Z,5.2
2023-01-23T14:47:16.114Z,5.2
2023-01-23T14:52:18.277Z,21.8
2023-01-23T14:57:20.814Z,5.2
2023-01-23T15:02:23.165Z,5.4
2023-01-23T15:07:25.855Z,4.9
2023-01-23T15:12:28.149Z,5
2023-01-23T15:17:30.266Z,5.2
2023-01-23T15:22:32.439Z,5.4
2023-01-23T15:27:34.828Z,5.6
2023-01-23T15:32:36.998Z,6
2023-01-23T15:37:39.224Z,6.7
2023-01-23T15:42:41.316Z,6.4
2023-01-23T15:47:43.568Z,7.5
2023-01-23T15:52:45.941Z,20.2
2023-01-23T15:57:48.356Z,8.3
2023-01-23T16:02:57.973Z,7.7
2023-01-23T16:07:50.814Z,7.4
2023-01-23T16:12:53.441Z,7.4
2023-01-23T16:17:55.630Z,8.5
2023-01-23T16:23:01.825Z,9.7
2023-01-23T16:28:06.622Z,9.4
2023-01-23T16:33:09.377Z,8
2023-01-23T16:38:11.452Z,8.9
2023-01-23T16:43:13.718Z,9.2
2023-01-23T16:48:28.641Z,8
2023-01-23T16:53:21.504Z,19.7
2023-01-23T16:58:23.514Z,7.7
2023-01-23T17:03:26.341Z,7.8
2023-01-23T17:08:28.820Z,8.4
2023-01-23T17:18:32.162Z,7.9
2023-01-23T17:23:34.146Z,8.7
2023-01-23T17:28:36.493Z,10
2023-01-23T17:33:38.612Z,11.5
2023-01-23T17:38:40.954Z,10.1
2023-01-23T17:43:43.087Z,10
2023-01-23T17:48:45.435Z,11.7
2023-01-23T17:53:47.519Z,12.2
2023-01-23T17:58:49.582Z,13.2
2023-01-23T18:03:51.631Z,13.1
2023-01-23T18:08:53.719Z,12.3
2023-01-23T18:13:56.026Z,12.8
2023-01-23T18:19:01.151Z,13.4
2023-01-23T18:24:04.470Z,14.1
2023-01-23T18:29:07.110Z,13.3
2023-01-23T18:34:09.142Z,16.4
2023-01-23T18:39:11.212Z,16.4
2023-01-23T18:44:13.377Z,12
2023-01-23T18:49:32.847Z,12
2023-01-23T18:54:25.502Z,11.2
2023-01-23T18:59:27.794Z,9.5
2023-01-23T19:04:29.857Z,9.5
2023-01-23T19:09:32.340Z,9.4
2023-01-23T19:14:34.667Z,10.1
2023-01-23T19:19:36.698Z,10
2023-01-23T19:24:38.787Z,10.5
2023-01-23T19:29:41.171Z,10.2
2023-01-23T19:34:43.832Z,10.5
2023-01-23T19:39:45.901Z,11
2023-01-23T19:44:50.530Z,10.5
2023-01-23T19:49:54.417Z,10
2023-01-23T19:54:56.971Z,10.7
2023-01-23T19:59:59.152Z,10.2
2023-01-23T20:05:01.335Z,10.7
2023-01-23T20:10:03.792Z,10.1
2023-01-23T20:15:07.070Z,10.1
2023-01-23T20:20:09.402Z,10.6
2023-01-23T20:25:11.555Z,10.4
2023-01-23T20:30:13.811Z,10.5
2023-01-23T20:35:16.576Z,11.1
2023-01-23T20:40:21.093Z,10.8
2023-01-23T20:45:27.396Z,11.3
2023-01-23T20:50:32.630Z,11.9
2023-01-23T20:55:34.962Z,10.4
2023-01-23T21:00:41.213Z,9.5
2023-01-23T21:05:44.039Z,9.3
2023-01-23T21:10:48.304Z,9.5
2023-01-23T21:15:51.588Z,9.8
2023-01-23T21:20:55.660Z,8.6
2023-01-23T21:25:57.875Z,8.4
2023-01-23T21:31:00.283Z,9.2
2023-01-23T21:36:03.035Z,19.8
2023-01-23T21:41:05.227Z,8.9
2023-01-23T21:46:07.843Z,8.2
2023-01-23T21:51:10.382Z,9.3
2023-01-23T21:56:12.616Z,9.2
2023-01-23T22:01:14.878Z,8.5
2023-01-23T22:06:17.076Z,8.3
2023-01-23T22:16:49.619Z,8.3
2023-01-23T22:21:33.155Z,8.6
2023-01-23T22:26:35.364Z,9.6
2023-01-23T22:31:37.693Z,9.4
2023-01-23T22:36:40.558Z,9.1
2023-01-23T22:41:42.816Z,9.1
2023-01-23T22:46:45.071Z,9.6
2023-01-23T22:51:47.416Z,9.2
2023-01-23T22:56:49.713Z,8.6
2023-01-23T23:01:52.169Z,8.4
2023-01-23T23:06:54.467Z,9
2023-01-23T23:11:56.920Z,8.5
2023-01-23T23:16:59.053Z,8.2
2023-01-23T23:27:03.575Z,8.9
2023-01-23T23:32:06.047Z,8.9
2023-01-23T23:37:09.300Z,9.7
2023-01-23T23:42:11.515Z,10.4
2023-01-23T23:47:13.596Z,8.8
2023-01-23T23:52:15.773Z,8.5
2023-01-23T23:57:17.751Z,9.2
